Time;durP1;ratioP1;P1;durP2;ratioP2;P2;SDS_P1;SDS_P2;PMS_P1;PMS_P2;Temp;Humidity;BMP_temperature;BMP_pressure;BME280_temperature;BME280_humidity;BME280_pressure;Samples;Min_cycle;Max_cycle;Signal;HPM_P1;HPM_P2
2021/12/18 00:00:31;;;;;;;;;;;6.40;96.90;;;;;;5067263;28;20045;-75
2021/12/18 00:02:57;;;;;;;32.78;14.23;;;6.40;96.90;;;;;;5066738;28;19958;-77
2021/12/18 00:05:23;;;;;;;33.78;15.38;;;6.30;96.80;;;;;;5066689;28;20131;-78
2021/12/18 00:07:49;;;;;;;34.53;16.58;;;6.20;96.80;;;;;;5066584;28;20036;-76
2021/12/18 00:10:19;;;;;;;30.25;15.23;;;6.10;96.80;;;;;;5065720;28;20112;-77
2021/12/18 00:12:49;;;;;;;40.90;18.63;;;6.00;96.80;;;;;;5066628;28;20028;-78
2021/12/18 00:15:19;;;;;;;36.60;16.30;;;5.90;96.80;;;;;;5065662;28;20028;-76
2021/12/18 00:17:44;;;;;;;33.28;16.95;;;5.80;96.80;;;;;;5066870;28;20515;-77
2021/12/18 00:20:11;;;;;;;41.85;18.08;;;5.70;96.70;;;;;;5065482;28;20036;-77
2021/12/18 00:22:37;;;;;;;40.33;16.38;;;5.50;96.80;;;;;;5066467;28;20127;-77
2021/12/18 00:25:03;;;;;;;43.42;16.67;;;5.40;96.90;;;;;;5066671;28;20093;-75
2021/12/18 00:27:29;;;;;;;;;;;5.40;97.00;;;;;;5066935;28;20051;-76
2021/12/18 00:29:54;;;;;;;34.05;14.77;;;5.30;97.00;;;;;;5069323;28;19995;-77
2021/12/18 00:32:20;;;;;;;30.52;15.07;;;5.30;96.90;;;;;;5070303;28;20483;-76
2021/12/18 00:34:46;;;;;;;39.88;17.15;;;5.10;96.90;;;;;;5070257;28;20029;-77
2021/12/18 00:37:12;;;;;;;34.28;15.40;;;5.10;96.90;;;;;;5086096;28;20028;-79
2021/12/18 00:39:44;;;;;;;33.90;15.18;;;5.00;96.90;;;;;;5068850;28;20075;-77
2021/12/18 00:44:54;;;;;;;35.40;17.08;;;4.90;96.90;;;;;;5069489;28;20134;-76
2021/12/18 00:47:19;;;;;;;41.75;17.80;;;4.80;96.90;;;;;;5068827;28;20024;-77
2021/12/18 00:49:45;;;;;;;33.78;17.45;;;4.70;97.10;;;;;;5069992;28;20033;-77
2021/12/18 00:52:12;;;;;;;35.22;15.63;;;4.60;97.20;;;;;;5068669;28;20131;-77
2021/12/18 00:54:37;;;;;;;;;;;4.60;97.20;;;;;;5085839;28;20489;-77
2021/12/18 00:57:04;;;;;;;35.83;17.45;;;4.50;97.10;;;;;;5068716;28;19904;-77
2021/12/18 00:59:32;;;;;;;35.42;16.95;;;4.50;97.10;;;;;;5068535;28;20071;-77
2021/12/18 01:01:58;;;;;;;39.60;17.25;;;4.50;97.10;;;;;;5068688;28;20031;-78
2021/12/18 01:04:24;;;;;;;34.33;15.93;;;4.40;97.30;;;;;;5069834;28;20021;-77
2021/12/18 01:06:49;;;;;;;37.20;16.45;;;4.40;97.20;;;;;;5085623;28;20315;-76
2021/12/18 01:09:19;;;;;;;41.28;17.65;;;4.30;97.30;;;;;;5069922;28;20037;-76
2021/12/18 01:11:47;;;;;;;36.70;17.48;;;4.40;97.50;;;;;;5068438;28;20036;-77
2021/12/18 01:25:03;;;;;;;37.70;16.70;;;4.70;97.70;;;;;;5069805;28;20490;-76
2021/12/18 01:27:29;;;;;;;34.15;16.48;;;4.80;97.70;;;;;;5069583;28;20044;-77
2021/12/18 01:29:54;;;;;;;37.03;16.35;;;4.90;97.70;;;;;;5069505;28;20510;-77
2021/12/18 01:32:20;;;;;;;41.53;17.42;;;4.90;97.60;;;;;;5068861;28;20028;-77
2021/12/18 01:34:48;;;;;;;34.58;16.25;;;4.90;97.60;;;;;;5069400;28;20043;-77
2021/12/18 01:37:14;;;;;;;41.63;19.73;;;5.00;97.60;;;;;;5085105;28;20107;-78
2021/12/18 01:39:41;;;;;;;36.95;18.10;;;5.00;97.40;;;;;;5051326;28;20522;-77
2021/12/18 01:52:38;;;;;;;;;;;4.80;96.80;;;;;;5069404;28;20081;-78
2021/12/18 01:55:05;;;;;;;34.63;15.88;;;4.80;97.00;;;;;;5067543;28;19908;-76
2021/12/18 01:57:31;;;;;;;32.50;14.15;;;4.80;97.00;;;;;;5067342;28;20032;-75
2021/12/18 01:59:58;;;;;;;35.33;16.52;;;4.80;97.10;;;;;;5068868;28;20029;-75
2021/12/18 02:02:24;;;;;;;;;;;4.80;97.20;;;;;;5069738;28;20106;-77
2021/12/18 02:04:50;;;;;;;34.67;14.15;;;4.80;97.20;;;;;;5068765;28;19904;-75
2021/12/18 02:07:16;;;;;;;35.03;16.15;;;4.70;97.10;;;;;;5084693;28;20028;-75
2021/12/18 02:10:19;;;;;;;42.47;16.80;;;4.70;97.10;;;;;;5068742;28;20037;-76
2021/12/18 02:20:49;;;;;;;36.35;16.23;;;4.50;97.20;;;;;;5068586;28;20040;-75
2021/12/18 02:23:15;;;;;;;33.65;15.20;;;4.40;97.20;;;;;;5068240;28;20070;-77
2021/12/18 02:25:44;;;;;;;45.05;16.30;;;4.40;97.20;;;;;;5068307;28;20082;-78
2021/12/18 02:28:19;;;;;;;44.85;17.23;;;4.40;97.20;;;;;;5067220;28;20021;-76
2021/12/18 02:30:46;;;;;;;40.03;16.48;;;4.30;97.10;;;;;;5068493;28;20529;-77
2021/12/18 02:33:12;;;;;;;39.60;17.55;;;4.20;97.10;;;;;;5068401;28;20039;-78
2021/12/18 02:35:46;;;;;;;35.45;15.50;;;4.20;97.10;;;;;;5068126;28;20024;-74
2021/12/18 02:38:30;;;;;;;38.17;15.40;;;4.10;97.20;;;;;;5067004;28;20035;-77
2021/12/18 02:41:08;;;;;;;31.70;15.07;;;4.10;97.20;;;;;;5068172;28;20016;-76
2021/12/18 02:43:36;;;;;;;26.60;12.93;;;4.00;97.10;;;;;;5068224;28;20486;-77
2021/12/18 02:46:07;;;;;;;33.95;14.82;;;4.00;97.10;;;;;;5068254;28;20133;-76
2021/12/18 02:48:36;;;;;;;32.92;14.98;;;3.90;97.00;;;;;;5068005;28;20052;-75
2021/12/18 02:51:04;;;;;;;29.23;13.30;;;3.90;96.90;;;;;;5068155;28;20101;-75
2021/12/18 02:53:29;;;;;;;29.85;12.65;;;3.80;96.90;;;;;;5065842;28;20407;-75
2021/12/18 02:56:04;;;;;;;30.20;13.95;;;3.80;97.00;;;;;;5066745;28;20025;-76
2021/12/18 02:58:31;;;;;;;30.50;12.25;;;3.70;96.90;;;;;;5067674;28;20040;-76
2021/12/18 03:00:59;;;;;;;26.38;12.82;;;3.70;96.90;;;;;;5067997;28;20031;-75
2021/12/18 03:03:28;;;;;;;26.70;11.70;;;3.70;97.00;;;;;;5067947;28;20018;-78
2021/12/18 03:25:10;;;;;;;31.15;11.50;;;3.20;97.40;;;;;;5067818;28;20028;-75
2021/12/18 03:27:36;;;;;;;25.45;10.60;;;3.30;97.40;;;;;;5067720;28;20031;-77
2021/12/18 03:30:03;;;;;;;30.20;11.80;;;3.20;97.30;;;;;;5049439;28;20241;-74
2021/12/18 03:32:29;;;;;;;24.38;11.55;;;3.20;97.30;;;;;;5067664;28;20082;-76
2021/12/18 03:34:55;;;;;;;20.83;10.20;;;3.10;97.30;;;;;;5049644;28;20032;-75
2021/12/18 03:37:21;;;;;;;25.83;10.45;;;3.10;97.50;;;;;;5067558;28;20437;-74
2021/12/18 03:39:47;;;;;;;;;;;3.10;97.50;;;;;;5066717;28;20028;-75
2021/12/18 03:42:13;;;;;;;24.05;10.52;;;3.10;97.50;;;;;;5066256;28;19954;-78
2021/12/18 03:44:39;;;;;;;21.98;10.82;;;3.10;97.40;;;;;;5067373;28;20035;-76
2021/12/18 03:47:06;;;;;;;22.98;11.23;;;3.10;97.40;;;;;;5067442;28;20017;-75
2021/12/18 03:49:32;;;;;;;29.23;11.00;;;3.10;97.30;;;;;;5067468;28;20032;-76
2021/12/18 03:51:58;;;;;;;21.92;11.23;;;3.10;97.30;;;;;;5067423;28;20051;-78
2021/12/18 03:54:24;;;;;;;24.00;10.80;;;3.10;97.30;;;;;;5066083;28;20371;-77
2021/12/18 03:56:50;;;;;;;23.20;10.73;;;3.00;97.20;;;;;;5067404;28;20096;-78
2021/12/18 03:59:16;;;;;;;22.10;10.23;;;3.00;97.20;;;;;;5066966;28;20043;-77
2021/12/18 04:01:42;;;;;;;26.85;11.18;;;3.00;97.30;;;;;;5066037;28;20033;-77
2021/12/18 04:04:08;;;;;;;28.10;12.75;;;3.00;97.40;;;;;;5067603;28;20384;-77
2021/12/18 04:06:37;;;;;;;32.58;11.65;;;2.90;97.30;;;;;;5071237;28;20044;-77
2021/12/18 04:09:03;;;;;;;26.95;10.48;;;2.90;97.40;;;;;;5070050;28;20454;-77
2021/12/18 04:11:29;;;;;;;20.33;9.50;;;2.90;97.40;;;;;;5071072;28;20126;-79
2021/12/18 04:13:55;;;;;;;20.95;8.88;;;2.90;97.70;;;;;;5069734;28;20032;-77
2021/12/18 04:16:21;;;;;;;19.10;9.90;;;2.90;97.40;;;;;;5071077;28;20024;-77
2021/12/18 04:18:47;;;;;;;24.85;10.95;;;2.90;97.30;;;;;;5069601;28;20040;-76
2021/12/18 04:21:13;;;;;;;22.50;10.60;;;2.90;97.20;;;;;;5070776;28;20116;-76
2021/12/18 04:23:39;;;;;;;19.52;8.90;;;2.90;97.30;;;;;;5070922;28;20017;-79
2021/12/18 04:26:04;;;;;;;24.75;11.75;;;2.90;97.40;;;;;;5069562;28;20025;-77
2021/12/18 04:28:30;;;;;;;27.42;11.68;;;2.90;97.40;;;;;;5070694;28;20446;-77
2021/12/18 04:30:56;;;;;;;29.50;12.70;;;2.90;97.40;;;;;;5070795;28;20028;-77
2021/12/18 04:33:22;;;;;;;20.42;10.35;;;2.90;97.50;;;;;;5069367;28;20036;-77
2021/12/18 04:35:47;;;;;;;29.38;10.60;;;2.90;97.60;;;;;;5053129;28;20077;-77
2021/12/18 04:38:13;;;;;;;27.98;11.48;;;3.00;97.60;;;;;;5069439;28;20037;-76
2021/12/18 04:40:40;;;;;;;26.50;12.10;;;3.10;97.60;;;;;;5069290;28;20033;-76
2021/12/18 04:43:06;;;;;;;24.05;10.50;;;3.10;97.50;;;;;;5070440;28;20029;-77
2021/12/18 04:45:32;;;;;;;23.02;10.60;;;3.10;97.40;;;;;;5070521;28;20077;-77
2021/12/18 04:47:58;;;;;;;26.70;11.88;;;3.10;97.40;;;;;;5086242;28;20097;-77
2021/12/18 04:50:24;;;;;;;27.83;12.20;;;3.20;97.40;;;;;;5069201;28;20519;-77
2021/12/18 04:52:51;;;;;;;22.85;11.02;;;3.20;97.50;;;;;;5070167;28;20498;-79
2021/12/18 04:55:17;;;;;;;26.70;10.98;;;3.20;97.50;;;;;;5070349;28;20039;-77
2021/12/18 04:57:43;;;;;;;27.27;11.65;;;3.20;97.50;;;;;;5070139;28;20044;-78
2021/12/18 05:00:11;;;;;;;;;;;3.20;97.40;;;;;;5070831;28;20481;-76
2021/12/18 05:02:40;;;;;;;21.83;10.35;;;3.20;97.40;;;;;;5070156;28;19954;-75
2021/12/18 05:05:08;;;;;;;23.75;9.95;;;3.20;97.30;;;;;;5069999;28;20033;-75
2021/12/18 05:07:33;;;;;;;33.45;18.65;;;3.10;97.40;;;;;;5052461;28;20501;-76
2021/12/18 05:10:00;;;;;;;31.90;14.77;;;3.10;97.40;;;;;;5069976;28;20095;-76
2021/12/18 05:12:25;;;;;;;39.67;16.45;;;3.10;97.40;;;;;;5069987;28;20042;-76
2021/12/18 05:14:51;;;;;;;34.85;13.93;;;3.10;97.60;;;;;;5069128;28;20390;-76
2021/12/18 05:17:17;;;;;;;30.67;13.43;;;3.20;97.80;;;;;;5085542;28;20090;-76
2021/12/18 05:19:43;;;;;;;31.13;14.57;;;3.20;97.80;;;;;;5070125;28;20451;-76
2021/12/18 05:22:09;;;;;;;35.08;14.02;;;3.20;97.80;;;;;;5068705;28;20029;-75
2021/12/18 05:24:35;;;;;;;31.33;13.52;;;3.30;97.80;;;;;;5068565;28;20032;-76
2021/12/18 05:27:01;;;;;;;32.10;12.70;;;3.30;97.70;;;;;;5069805;28;20383;-77
2021/12/18 05:29:27;;;;;;;31.05;12.77;;;3.30;97.70;;;;;;5068595;28;20089;-76
2021/12/18 05:31:53;;;;;;;36.05;15.68;;;3.30;97.60;;;;;;5069596;28;20443;-76
2021/12/18 05:34:23;;;;;;;34.33;14.27;;;3.30;97.80;;;;;;5069539;28;20103;-76
2021/12/18 05:39:25;;;;;;;36.78;15.90;;;3.50;98.00;;;;;;5069387;28;20119;-77
2021/12/18 05:41:51;;;;;;;44.60;16.20;;;3.50;98.00;;;;;;5068009;28;20021;-77
2021/12/18 05:44:25;;;;;;;40.90;16.55;;;3.60;98.20;;;;;;5067987;28;20464;-79
2021/12/18 05:46:52;;;;;;;43.42;18.35;;;3.70;98.30;;;;;;5068045;28;20032;-76
2021/12/18 05:49:18;;;;;;;48.85;19.38;;;3.80;98.30;;;;;;5067970;28;20562;-77
2021/12/18 05:51:44;;;;;;;56.85;20.90;;;3.90;98.50;;;;;;5068011;28;20475;-76
2021/12/18 05:54:10;;;;;;;;;;;4.00;98.60;;;;;;5068315;28;20036;-76
2021/12/18 05:56:37;;;;;;;47.63;19.10;;;4.20;98.80;;;;;;5069075;28;20003;-78
2021/12/18 05:59:03;;;;;;;;;;;4.20;98.50;;;;;;5069153;28;20048;-76
2021/12/18 06:01:28;;;;;;;59.55;19.92;;;4.30;98.40;;;;;;5069024;28;20049;-78
2021/12/18 06:03:55;;;;;;;52.30;19.63;;;4.30;98.20;;;;;;5067534;28;20119;-78
2021/12/18 06:06:21;;;;;;;54.78;17.90;;;4.30;98.20;;;;;;5068823;28;20043;-76
2021/12/18 06:08:47;;;;;;;52.50;19.67;;;4.30;98.20;;;;;;5067937;28;20040;-77
2021/12/18 06:11:16;;;;;;;54.75;17.92;;;4.30;98.20;;;;;;5068924;28;20470;-77
2021/12/18 06:13:47;;;;;;;55.75;18.92;;;4.30;98.40;;;;;;5068575;28;20032;-78
2021/12/18 06:16:13;;;;;;;49.85;17.85;;;4.20;98.40;;;;;;5068818;28;20032;-77
2021/12/18 06:18:42;;;;;;;39.85;15.43;;;4.20;98.50;;;;;;5067348;28;20043;-79
2021/12/18 06:21:13;;;;;;;49.50;18.15;;;4.20;98.40;;;;;;5068494;28;20021;-79
2021/12/18 06:23:39;;;;;;;62.90;22.48;;;4.20;98.50;;;;;;5068460;28;20047;-79
2021/12/18 06:26:05;;;;;;;61.63;21.63;;;4.10;98.60;;;;;;5068353;28;20021;-76
2021/12/18 06:28:31;;;;;;;62.15;21.95;;;4.00;98.70;;;;;;5067101;28;20077;-78
2021/12/18 06:30:57;;;;;;;59.05;20.42;;;4.10;98.90;;;;;;5067168;28;20024;-77
2021/12/18 06:33:22;;;;;;;59.42;20.85;;;4.10;99.00;;;;;;5068322;28;20104;-77
2021/12/18 06:35:48;;;;;;;69.32;21.08;;;4.10;99.00;;;;;;5067079;28;20024;-77
2021/12/18 06:38:14;;;;;;;57.33;19.52;;;4.10;99.00;;;;;;5067010;28;20039;-78
2021/12/18 06:40:40;;;;;;;56.72;19.48;;;4.10;99.00;;;;;;5068229;28;20070;-75
2021/12/18 06:43:06;;;;;;;60.72;20.98;;;4.20;99.00;;;;;;5068171;28;20052;-77
2021/12/18 06:45:32;;;;;;;58.42;20.85;;;4.20;99.00;;;;;;5068259;28;20032;-76
2021/12/18 06:47:57;;;;;;;64.28;22.63;;;4.10;98.90;;;;;;5067016;28;20063;-77
2021/12/18 06:50:23;;;;;;;72.68;23.52;;;4.20;99.00;;;;;;5083977;28;20033;-78
2021/12/18 06:52:49;;;;;;;68.65;23.42;;;4.20;99.10;;;;;;5068366;28;20093;-79
2021/12/18 06:55:15;;;;;;;75.53;24.88;;;4.30;99.20;;;;;;5066708;28;20037;-77
2021/12/18 06:57:41;;;;;;;71.53;23.88;;;4.30;99.30;;;;;;5050130;28;20052;-77
2021/12/18 07:00:11;;;;;;;78.25;25.50;;;4.40;99.40;;;;;;5066393;28;20167;-75
2021/12/18 07:02:37;;;;;;;81.80;25.80;;;4.40;99.50;;;;;;5066437;28;20428;-78
2021/12/18 07:05:03;;;;;;;75.30;24.40;;;4.50;99.50;;;;;;5067883;28;20017;-78
2021/12/18 07:07:29;;;;;;;83.05;25.25;;;4.50;99.40;;;;;;5067141;28;20502;-78
2021/12/18 07:09:55;;;;;;;71.85;23.35;;;4.50;99.40;;;;;;5067908;28;20033;-79
2021/12/18 07:12:21;;;;;;;76.13;24.60;;;4.60;99.50;;;;;;5066542;28;20440;-76
2021/12/18 07:14:46;;;;;;;75.78;22.35;;;4.60;99.50;;;;;;5067881;28;20033;-78
2021/12/18 07:17:12;;;;;;;71.85;24.98;;;4.60;99.60;;;;;;5066439;28;20494;-77
2021/12/18 07:19:38;;;;;;;93.65;31.80;;;4.60;99.60;;;;;;5067667;28;20075;-77
2021/12/18 07:22:04;;;;;;;84.82;27.35;;;4.70;99.80;;;;;;5066444;28;20032;-77
2021/12/18 07:24:30;;;;;;;95.40;30.00;;;4.70;99.80;;;;;;5066589;28;20539;-77
2021/12/18 07:26:56;;;;;;;111.32;37.63;;;4.80;99.90;;;;;;5066392;28;20037;-78
2021/12/18 07:29:22;;;;;;;154.30;56.03;;;5.00;99.90;;;;;;5067689;28;20135;-75
2021/12/18 07:31:49;;;;;;;149.60;52.05;;;5.10;99.90;;;;;;5067449;28;20035;-76
2021/12/18 07:34:15;;;;;;;158.60;54.08;;;5.20;99.90;;;;;;5067525;28;20383;-75
2021/12/18 07:36:40;;;;;;;119.57;40.63;;;5.30;99.90;;;;;;5066241;28;20028;-77
2021/12/18 07:39:06;;;;;;;111.32;36.60;;;5.40;99.90;;;;;;5069220;28;20106;-76
2021/12/18 07:41:32;;;;;;;91.82;34.45;;;5.50;99.90;;;;;;5071597;28;20021;-76
2021/12/18 07:43:58;;;;;;;302.73;117.72;;;5.50;99.90;;;;;;5071507;28;20048;-76
2021/12/18 07:46:24;;;;;;;91.72;32.40;;;5.60;99.90;;;;;;5070185;28;20063;-75
2021/12/18 07:48:50;;;;;;;96.05;31.50;;;5.70;99.90;;;;;;5087010;28;20040;-76
2021/12/18 07:51:16;;;;;;;85.00;29.85;;;5.80;99.90;;;;;;5070217;28;20028;-77
2021/12/18 07:53:41;;;;;;;103.93;36.90;;;5.90;99.90;;;;;;5069711;28;20056;-77
2021/12/18 07:56:09;;;;;;;94.93;30.08;;;6.00;99.90;;;;;;5071151;28;20075;-75
2021/12/18 07:58:35;;;;;;;76.97;25.67;;;6.10;99.90;;;;;;5070806;28;20072;-76
2021/12/18 08:01:02;;;;;;;69.47;26.35;;;6.10;99.90;;;;;;5071219;28;20025;-77
2021/12/18 08:03:28;;;;;;;71.97;27.52;;;6.20;99.90;;;;;;5071445;28;20438;-78
2021/12/18 08:05:54;;;;;;;82.80;27.33;;;6.20;99.90;;;;;;5069709;28;20078;-76
2021/12/18 08:08:19;;;;;;;75.50;26.67;;;6.30;99.90;;;;;;5071148;28;20107;-77
2021/12/18 08:10:45;;;;;;;83.65;28.60;;;6.40;99.90;;;;;;5070969;28;20043;-76
2021/12/18 08:13:11;;;;;;;80.57;28.90;;;6.50;99.90;;;;;;5070850;28;20039;-76
2021/12/18 08:15:37;;;;;;;88.22;29.70;;;6.50;99.90;;;;;;5052942;28;20112;-78
2021/12/18 08:18:06;;;;;;;74.15;28.02;;;6.60;99.90;;;;;;5069674;28;20032;-78
2021/12/18 08:20:33;;;;;;;70.90;28.17;;;6.70;99.90;;;;;;5070791;28;20032;-77
2021/12/18 08:23:00;;;;;;;81.68;27.65;;;6.70;99.90;;;;;;5070601;28;20055;-76
2021/12/18 08:25:27;;;;;;;77.43;25.33;;;6.80;99.90;;;;;;5069376;28;20035;-77
2021/12/18 08:27:59;;;;;;;73.30;24.70;;;6.80;99.90;;;;;;5052490;28;20411;-73
2021/12/18 08:30:30;;;;;;;60.47;23.50;;;6.80;99.90;;;;;;5069108;28;20035;-75
2021/12/18 08:32:58;;;;;;;52.65;19.90;;;6.80;99.90;;;;;;5070352;28;20039;-77
2021/12/18 08:35:28;;;;;;;64.20;21.90;;;6.80;99.90;;;;;;5070553;28;20081;-74
2021/12/18 08:37:54;;;;;;;63.92;23.23;;;6.90;99.90;;;;;;5070284;28;20102;-75
2021/12/18 08:40:20;;;;;;;76.43;25.45;;;6.90;99.90;;;;;;5052551;28;20474;-76
2021/12/18 08:42:46;;;;;;;78.82;25.58;;;6.80;99.90;;;;;;5069080;28;20052;-77
2021/12/18 08:45:13;;;;;;;71.65;24.48;;;6.90;99.90;;;;;;5069060;28;20049;-75
2021/12/18 08:47:39;;;;;;;77.78;24.95;;;6.90;99.90;;;;;;5070091;28;20048;-74
2021/12/18 08:50:06;;;;;;;73.93;24.23;;;7.00;99.90;;;;;;5070364;28;20478;-75
2021/12/18 08:52:32;;;;;;;70.00;24.98;;;7.00;99.90;;;;;;5070030;28;20036;-76
2021/12/18 08:54:59;;;;;;;65.68;22.98;;;7.10;99.90;;;;;;5068937;28;20032;-78
2021/12/18 08:57:25;;;;;;;80.72;23.73;;;7.10;99.90;;;;;;5052003;28;20075;-76
2021/12/18 08:59:51;;;;;;;71.28;23.60;;;7.20;99.90;;;;;;5068262;28;20044;-76
2021/12/18 09:02:17;;;;;;;75.22;23.75;;;7.20;99.90;;;;;;5068193;28;20541;-76
2021/12/18 09:04:43;;;;;;;81.43;24.70;;;7.20;99.90;;;;;;5068277;28;20033;-77
2021/12/18 09:07:09;;;;;;;77.97;24.23;;;7.20;99.90;;;;;;5069857;28;20016;-76
2021/12/18 09:09:36;;;;;;;69.97;23.23;;;7.30;99.90;;;;;;5068201;28;20043;-76
2021/12/18 09:12:02;;;;;;;78.05;24.35;;;7.30;99.90;;;;;;5069514;28;20032;-75
2021/12/18 09:14:28;;;;;;;71.65;23.73;;;7.40;99.90;;;;;;5068205;28;20028;-75
2021/12/18 09:16:54;;;;;;;77.53;23.77;;;7.40;99.90;;;;;;5069329;28;20098;-76
2021/12/18 09:19:20;;;;;;;79.25;24.10;;;7.50;99.90;;;;;;5069515;28;20470;-77
2021/12/18 09:21:46;;;;;;;70.47;24.42;;;7.60;99.90;;;;;;5068453;28;20123;-76
2021/12/18 09:24:12;;;;;;;73.88;23.30;;;7.60;99.90;;;;;;5067995;28;20025;-76
2021/12/18 09:26:38;;;;;;;73.93;23.15;;;7.70;99.90;;;;;;5069534;28;20025;-76
2021/12/18 09:29:04;;;;;;;77.40;21.90;;;7.80;99.90;;;;;;5068133;28;20490;-75
2021/12/18 09:31:30;;;;;;;70.90;22.77;;;7.90;99.90;;;;;;5067885;28;20037;-77
2021/12/18 09:33:56;;;;;;;63.42;21.63;;;8.00;99.90;;;;;;5068673;28;20063;-76
2021/12/18 09:36:22;;;;;;;73.88;22.52;;;8.00;99.90;;;;;;5069236;28;20036;-77
2021/12/18 09:38:47;;;;;;;65.55;22.20;;;8.10;99.90;;;;;;5050633;28;20025;-76
2021/12/18 09:41:13;;;;;;;73.03;22.65;;;8.20;99.90;;;;;;5068993;28;20028;-78
2021/12/18 09:43:39;;;;;;;69.57;24.10;;;8.30;99.90;;;;;;5068943;28;20471;-74
2021/12/18 09:46:13;;;;;;;69.20;22.73;;;8.30;99.90;;;;;;5067470;28;20028;-78
2021/12/18 09:48:43;;;;;;;60.80;23.05;;;8.40;99.90;;;;;;5068935;28;20056;-77
2021/12/18 09:51:18;;;;;;;70.20;22.98;;;8.50;99.90;;;;;;5070521;28;20051;-76
2021/12/18 09:53:44;;;;;;;63.50;23.20;;;8.60;99.90;;;;;;5070464;28;20054;-77
2021/12/18 09:56:09;;;;;;;66.07;21.42;;;8.70;99.90;;;;;;5068896;28;20648;-76
2021/12/18 09:58:35;;;;;;;66.05;20.45;;;8.80;99.90;;;;;;5069988;28;20054;-77
2021/12/18 10:01:02;;;;;;;59.20;20.23;;;8.80;99.90;;;;;;5069985;28;20040;-75
2021/12/18 10:03:58;;;;;;;66.25;22.42;;;8.80;99.90;;;;;;5069222;28;20024;-76
2021/12/18 10:06:44;;;;;;;64.53;21.52;;;8.90;99.90;;;;;;5070022;28;20020;-75
2021/12/18 10:09:34;;;;;;;67.32;21.98;;;8.90;99.90;;;;;;5069685;28;20036;-75
2021/12/18 10:12:24;;;;;;;61.33;21.30;;;9.00;99.90;;;;;;5070027;28;20024;-75
2021/12/18 10:14:51;;;;;;;56.35;21.35;;;9.10;99.90;;;;;;5069801;28;20158;-75
2021/12/18 10:17:37;;;;;;;53.33;20.60;;;9.10;99.90;;;;;;5068615;28;20383;-76
2021/12/18 10:20:23;;;;;;;59.08;21.58;;;9.10;99.90;;;;;;5069475;28;20138;-76
2021/12/18 10:22:58;;;;;;;53.10;19.85;;;9.20;99.90;;;;;;5069006;28;20031;-75
2021/12/18 10:25:26;;;;;;;48.45;18.58;;;9.20;99.90;;;;;;5068239;28;20048;-75
2021/12/18 10:28:20;;;;;;;51.83;19.65;;;9.20;99.90;;;;;;5068393;28;20489;-76
2021/12/18 10:30:51;;;;;;;51.33;18.77;;;9.30;99.90;;;;;;5069797;28;20490;-76
2021/12/18 10:33:18;;;;;;;48.70;17.70;;;9.30;99.90;;;;;;5069532;28;20447;-75
2021/12/18 10:35:50;;;;;;;54.95;19.88;;;9.30;99.90;;;;;;5069964;28;20027;-79
2021/12/18 10:38:46;;;;;;;48.33;19.23;;;9.30;99.90;;;;;;5068121;28;20028;-77
2021/12/18 10:41:31;;;;;;;46.55;18.58;;;9.40;99.90;;;;;;5069705;28;20047;-78
2021/12/18 10:44:08;;;;;;;52.78;19.13;;;9.40;99.90;;;;;;5056674;28;20465;-76
2021/12/18 10:46:41;;;;;;;49.20;18.25;;;9.50;99.90;;;;;;5068929;28;20028;-77
2021/12/18 10:49:15;;;;;;;45.58;17.75;;;9.60;99.90;;;;;;5069384;28;20101;-76
2021/12/18 10:51:42;;;;;;;54.63;19.33;;;9.70;99.90;;;;;;5067678;28;20340;-77
2021/12/18 10:54:14;;;;;;;47.30;17.50;;;9.90;99.90;;;;;;5068801;28;20033;-76
2021/12/18 10:56:46;;;;;;;48.08;18.00;;;9.90;99.90;;;;;;5067831;28;20024;-77
2021/12/18 10:59:26;;;;;;;53.05;19.25;;;10.00;99.90;;;;;;5068852;28;20094;-79
2021/12/18 11:01:56;;;;;;;46.03;17.63;;;10.00;99.90;;;;;;5067867;28;20027;-80
2021/12/18 11:04:26;;;;;;;53.33;17.48;;;10.00;99.90;;;;;;5067783;28;20380;-74
2021/12/18 11:06:54;;;;;;;46.90;18.35;;;10.00;99.90;;;;;;5068634;28;20057;-76
2021/12/18 11:09:28;;;;;;;47.15;17.98;;;9.90;99.90;;;;;;5067593;28;20044;-76
2021/12/18 11:14:38;;;;;;;44.35;16.77;;;10.00;99.90;;;;;;5068396;28;20036;-77
2021/12/18 11:17:06;;;;;;;45.88;16.83;;;10.00;99.90;;;;;;5068586;28;20016;-76
2021/12/18 11:19:34;;;;;;;43.55;16.90;;;10.00;99.90;;;;;;5068700;28;20555;-76
2021/12/18 11:22:06;;;;;;;44.15;17.30;;;9.90;99.90;;;;;;5068805;28;20625;-75
2021/12/18 11:24:41;;;;;;;43.28;17.35;;;9.70;99.90;;;;;;5068521;28;20173;-74
2021/12/18 11:27:10;;;;;;;43.42;15.52;;;9.60;99.90;;;;;;5061978;28;20340;-76
2021/12/18 11:29:46;;;;;;;48.08;19.42;;;9.50;99.90;;;;;;5068420;28;20024;-75
2021/12/18 11:32:24;;;;;;;40.83;16.50;;;9.40;99.90;;;;;;5068857;28;20114;-75
2021/12/18 11:34:54;;;;;;;38.83;15.48;;;9.40;99.90;;;;;;5068817;28;20259;-76
2021/12/18 11:37:21;;;;;;;42.60;17.15;;;9.40;99.90;;;;;;5068329;28;20105;-78
2021/12/18 11:39:49;;;;;;;46.25;16.92;;;9.30;99.90;;;;;;5082447;28;20133;-73
2021/12/18 11:42:16;;;;;;;39.75;15.75;;;9.30;99.90;;;;;;5066782;28;20119;-76
2021/12/18 11:44:43;;;;;;;42.85;16.38;;;9.30;99.90;;;;;;5068444;28;20016;-77
2021/12/18 11:47:37;;;;;;;43.95;16.77;;;9.30;99.90;;;;;;5066511;28;20027;-78
2021/12/18 11:50:32;;;;;;;41.75;15.70;;;9.30;99.80;;;;;;5060501;28;20024;-76
2021/12/18 11:53:05;;;;;;;47.95;17.55;;;9.20;99.70;;;;;;5061926;28;20463;-76
2021/12/18 11:55:51;;;;;;;42.65;17.85;;;9.20;99.60;;;;;;5067660;28;20108;-76
2021/12/18 11:58:16;;;;;;;46.67;18.35;;;9.20;99.50;;;;;;5056135;28;20032;-77
2021/12/18 12:00:49;;;;;;;54.00;20.15;;;9.20;99.50;;;;;;5067100;28;20035;-77
2021/12/18 12:03:38;;;;;;;48.38;18.55;;;9.10;99.50;;;;;;5067903;28;20364;-75
2021/12/18 12:06:33;;;;;;;46.35;16.50;;;9.20;99.60;;;;;;5068517;28;20017;-76
2021/12/18 12:09:35;;;;;;;49.65;18.95;;;9.30;99.70;;;;;;5069804;28;20028;-76
2021/12/18 12:12:13;;;;;;;49.03;19.67;;;9.30;99.70;;;;;;5068786;28;20389;-76
2021/12/18 12:14:43;;;;;;;48.92;20.67;;;9.40;99.70;;;;;;5068337;28;20040;-76
2021/12/18 12:17:25;;;;;;;50.65;20.05;;;9.50;99.70;;;;;;5068068;28;20428;-77
2021/12/18 12:20:05;;;;;;;58.10;23.92;;;9.60;99.70;;;;;;5065796;28;20486;-76
2021/12/18 12:22:43;;;;;;;46.30;17.92;;;9.70;99.60;;;;;;5067414;28;20021;-76
2021/12/18 12:25:12;;;;;;;46.75;19.50;;;9.80;99.50;;;;;;5069665;28;20021;-76
2021/12/18 12:27:41;;;;;;;56.80;22.42;;;9.80;99.40;;;;;;5071844;28;20103;-76
2021/12/18 12:30:38;;;;;;;61.42;24.20;;;9.70;99.30;;;;;;5070587;28;20036;-76
2021/12/18 12:33:15;;;;;;;61.70;23.20;;;9.70;99.30;;;;;;5070050;28;20441;-75
2021/12/18 12:35:56;;;;;;;56.42;22.75;;;9.70;99.40;;;;;;5070843;28;20060;-76
2021/12/18 12:38:29;;;;;;;59.45;21.67;;;9.70;99.30;;;;;;5069932;28;20529;-76
2021/12/18 12:41:27;;;;;;;54.53;22.75;;;9.70;99.30;;;;;;5071188;28;20036;-74
2021/12/18 12:44:01;;;;;;;45.67;18.83;;;9.70;99.30;;;;;;5059588;28;20138;-76
2021/12/18 12:46:32;;;;;;;48.42;17.40;;;9.80;99.30;;;;;;5054366;28;20036;-76
2021/12/18 12:49:05;;;;;;;53.45;18.67;;;9.80;99.30;;;;;;5070464;28;20052;-76
2021/12/18 12:52:02;;;;;;;48.10;19.92;;;9.80;99.40;;;;;;5071257;28;20087;-76
2021/12/18 12:54:47;;;;;;;;;;;9.80;99.40;;;;;;5072586;28;20017;-75
2021/12/18 12:57:28;;;;;;;48.33;17.70;;;9.90;99.40;;;;;;5072292;28;19908;-77
2021/12/18 13:00:16;;;;;;;56.22;21.48;;;9.90;99.30;;;;;;5091430;28;20076;-75
2021/12/18 13:02:51;;;;;;;72.88;31.20;;;9.90;99.30;;;;;;5070779;28;20040;-75
2021/12/18 13:05:18;;;;;;;60.40;25.58;;;10.00;99.30;;;;;;5071137;28;20092;-75
2021/12/18 13:07:59;;;;;;;50.95;21.23;;;10.00;99.40;;;;;;5069429;28;20032;-75
2021/12/18 13:10:29;;;;;;;55.28;22.40;;;10.00;99.40;;;;;;5049635;28;20032;-75
2021/12/18 13:13:10;;;;;;;49.28;21.52;;;10.00;99.30;;;;;;5064645;28;20065;-75
2021/12/18 13:15:54;;;;;;;52.85;23.15;;;10.10;99.40;;;;;;5069254;28;20031;-75
2021/12/18 13:18:23;;;;;;;50.67;21.13;;;10.10;99.40;;;;;;5071054;28;20035;-76
2021/12/18 13:20:58;;;;;;;55.40;21.42;;;10.20;99.40;;;;;;5073763;28;20032;-77
2021/12/18 13:23:47;;;;;;;54.45;20.60;;;10.30;99.60;;;;;;5069684;28;20052;-77
2021/12/18 13:26:16;;;;;;;50.75;19.70;;;10.30;99.40;;;;;;5071615;28;20412;-76
2021/12/18 13:28:53;;;;;;;50.95;19.73;;;10.40;99.40;;;;;;5071218;28;20053;-76
2021/12/18 13:31:23;;;;;;;51.45;19.27;;;10.50;99.50;;;;;;5055381;28;20016;-79
2021/12/18 13:33:55;;;;;;;40.50;18.42;;;10.60;99.50;;;;;;5068816;28;20494;-79
2021/12/18 13:36:21;;;;;;;42.17;19.00;;;10.70;99.40;;;;;;5060011;28;20021;-79
2021/12/18 13:38:47;;;;;;;41.92;18.92;;;10.80;99.40;;;;;;5071120;28;20052;-77
2021/12/18 13:41:15;;;;;;;39.20;17.55;;;10.90;99.30;;;;;;5072286;28;20025;-77
2021/12/18 13:43:43;;;;;;;37.90;16.15;;;10.90;99.30;;;;;;5071981;28;20032;-71
2021/12/18 13:46:13;;;;;;;45.50;17.15;;;11.00;99.30;;;;;;5070472;28;20051;-78